Capitol Logistics 985

Operating for DHL



LCLK
Larnaca International Airport
Larnaca, CY
LGAV
Eleftherios Venizelos International Airport
Athens, GR

Activity Log

Date Flight Route Aircraft Duration
02/22/2022 CPX985 PHA1W PHA M31 GENOS PEDER EVENO UM601 RDS UL995 VARIX VARI3A A30F 1h 36m

Route Details

Aircraft Information
Group: European Fleet
Types: A30F,A31F,B738
Route Data
Demand: V
Distance: 503nm
Duration: 2h 00m
Recm'd Route: PHA2D PHA M31 GENOS PEDER EVENO UM601 RDS UL995 VARIX VARI3C
Origin Wx: LCLK 270530Z VRB02KT CAVOK 28/16 Q1013 NOSIG
Dest. Wx: LGAV 270550Z 03007KT CAVOK 25/15 Q1017 NOSIG
Notes:

Financial History
Total Freight: 50,616lbs
Average Load: 50,616lbs/flt
Fuel Used: 17,095lbs
Avg. Fuel Used: 17,095lbs/flt
Fuel Expense: $16,085
Avg. Fuel Expense: $16,085
Avg. Fuel Cost: $0.94/lbs
Total Gross Income: $185,862
Pilot Pay: $259
Total Expenses: $25,192
Total Revenue: $144,233
Average Revenue: $185,861.95